地図

経路データ

SID SEASON NUMBER BASIN SUBBASIN NAME ISO_TIME NATURE LAT LON WMO_WIND WMO_PRES WMO_AGENCY TRACK_TYPE DIST2LAND LANDFALL IFLAG USA_AGENCY USA_ATCF_ID USA_LAT USA_LON USA_RECORD USA_STATUS USA_WIND USA_PRES USA_SSHS USA_R34_NE USA_R34_SE USA_R34_SW USA_R34_NW USA_R50_NE USA_R50_SE USA_R50_SW USA_R50_NW USA_R64_NE USA_R64_SE USA_R64_SW USA_R64_NW USA_POCI USA_ROCI USA_RMW USA_EYE TOKYO_LAT TOKYO_LON TOKYO_GRADE TOKYO_WIND TOKYO_PRES TOKYO_R50_DIR TOKYO_R50_LONG TOKYO_R50_SHORT TOKYO_R30_DIR TOKYO_R30_LONG TOKYO_R30_SHORT TOKYO_LAND CMA_LAT CMA_LON CMA_CAT CMA_WIND CMA_PRES HKO_LAT HKO_LON HKO_CAT HKO_WIND HKO_PRES NEWDELHI_LAT NEWDELHI_LON NEWDELHI_GRADE NEWDELHI_WIND NEWDELHI_PRES NEWDELHI_CI NEWDELHI_DP NEWDELHI_POCI REUNION_LAT REUNION_LON REUNION_TYPE REUNION_WIND REUNION_PRES REUNION_TNUM REUNION_CI REUNION_RMW REUNION_R34_NE REUNION_R34_SE REUNION_R34_SW REUNION_R34_NW REUNION_R50_NE REUNION_R50_SE REUNION_R50_SW REUNION_R50_NW REUNION_R64_NE REUNION_R64_SE REUNION_R64_SW REUNION_R64_NW BOM_LAT BOM_LON BOM_TYPE BOM_WIND BOM_PRES BOM_TNUM BOM_CI BOM_RMW BOM_R34_NE BOM_R34_SE BOM_R34_SW BOM_R34_NW BOM_R50_NE BOM_R50_SE BOM_R50_SW BOM_R50_NW BOM_R64_NE BOM_R64_SE BOM_R64_SW BOM_R64_NW BOM_ROCI BOM_POCI BOM_EYE BOM_POS_METHOD BOM_PRES_METHOD NADI_LAT NADI_LON NADI_CAT NADI_WIND NADI_PRES WELLINGTON_LAT WELLINGTON_LON WELLINGTON_WIND WELLINGTON_PRES DS824_LAT DS824_LON DS824_STAGE DS824_WIND DS824_PRES TD9636_LAT TD9636_LON TD9636_STAGE TD9636_WIND TD9636_PRES TD9635_LAT TD9635_LON TD9635_WIND TD9635_PRES TD9635_ROCI NEUMANN_LAT NEUMANN_LON NEUMANN_CLASS NEUMANN_WIND NEUMANN_PRES MLC_LAT MLC_LON MLC_CLASS MLC_WIND MLC_PRES USA_GUST BOM_GUST BOM_GUST_PER REUNION_GUST REUNION_GUST_PER USA_SEAHGT USA_SEARAD_NE USA_SEARAD_SE USA_SEARAD_SW USA_SEARAD_NW STORM_SPEED STORM_DIR
1910267N28300 1910 43 NA NA NOT_NAMED 1910-09-24 06:00:00 TS 27.8000 -60.5000 35 hurdat_atl main 1172 1168 O_____________ hurdat_atl AL041910 27.8000 -60.5000 TS 35 0 9 305
1910267N28300 1910 43 NA NA NOT_NAMED 1910-09-24 09:00:00 TS 28.0477 -60.8971 main 1175 1175 P_____________ AL041910 28.0477 -60.8971 TS 40 0 9 305
1910267N28300 1910 43 NA NA NOT_NAMED 1910-09-24 12:00:00 TS 28.3000 -61.3000 45 hurdat_atl main 1190 1186 O_____________ hurdat_atl AL041910 28.3000 -61.3000 TS 45 0 9 306
1910267N28300 1910 43 NA NA NOT_NAMED 1910-09-24 15:00:00 TS 28.5699 -61.7078 main 1207 1203 P_____________ AL041910 28.5699 -61.7078 TS 50 0 9 311
1910267N28300 1910 43 NA NA NOT_NAMED 1910-09-24 18:00:00 TS 28.9000 -62.1000 55 hurdat_atl main 1226 1226 O_____________ hurdat_atl AL041910 28.9000 -62.1000 TS 55 0 10 319
1910267N28300 1910 43 NA NA NOT_NAMED 1910-09-24 21:00:00 TS 29.3199 -62.4651 main 1258 1258 P_____________ AL041910 29.3199 -62.4651 TS 60 0 11 326
1910267N28300 1910 43 NA NA NOT_NAMED 1910-09-25 00:00:00 TS 29.8000 -62.8000 65 hurdat_atl main 1305 1305 O_____________ hurdat_atl AL041910 29.8000 -62.8000 HU 65 1 11 329
1910267N28300 1910 43 NA NA NOT_NAMED 1910-09-25 03:00:00 TS 30.2775 -63.1301 main 1304 1251 P_____________ AL041910 30.2775 -63.1301 HU 70 1 11 333
1910267N28300 1910 43 NA NA NOT_NAMED 1910-09-25 06:00:00 TS 30.8000 -63.4000 75 hurdat_atl main 1251 1208 O_____________ hurdat_atl AL041910 30.8000 -63.4000 HU 75 1 12 339
1910267N28300 1910 43 NA NA NOT_NAMED 1910-09-25 09:00:00 TS 31.3549 -63.6170 main 1203 1165 P_____________ AL041910 31.3549 -63.6170 HU 80 1 12 348
1910267N28300 1910 43 NA NA NOT_NAMED 1910-09-25 12:00:00 TS 32.0000 -63.7000 85 hurdat_atl main 1165 1139 O_____________ hurdat_atl AL041910 32.0000 -63.7000 HU 85 2 15 359
1910267N28300 1910 43 NA NA NOT_NAMED 1910-09-25 15:00:00 TS 32.7999 -63.6180 main 1140 1071 P_____________ AL041910 32.7999 -63.6180 HU 85 2 16 9
1910267N28300 1910 43 NA NA NOT_NAMED 1910-09-25 18:00:00 TS 33.6000 -63.4000 85 hurdat_atl main 1071 1024 O_____________ hurdat_atl AL041910 33.6000 -63.4000 HU 85 2 15 15
1910267N28300 1910 43 NA NA NOT_NAMED 1910-09-25 21:00:00 TS 34.2298 -63.1444 main 1029 990 P_____________ AL041910 34.2298 -63.1444 HU 85 2 13 22
1910267N28300 1910 43 NA NA NOT_NAMED 1910-09-26 00:00:00 TS 34.8000 -62.8000 85 hurdat_atl main 990 934 O_____________ hurdat_atl AL041910 34.8000 -62.8000 HU 85 2 13 28
1910267N28300 1910 43 NA NA NOT_NAMED 1910-09-26 03:00:00 TS 35.4151 -62.3726 main 934 883 P_____________ AL041910 35.4151 -62.3726 HU 85 2 14 31
1910267N28300 1910 43 NA NA NOT_NAMED 1910-09-26 06:00:00 TS 36.0000 -61.9000 85 hurdat_atl main 883 842 O_____________ hurdat_atl AL041910 36.0000 -61.9000 HU 85 2 13 35
1910267N28300 1910 43 NA NA NOT_NAMED 1910-09-26 09:00:00 TS 36.5074 -61.4417 main 846 809 P_____________ AL041910 36.5074 -61.4417 HU 82 1 12 36
1910267N28300 1910 43 NA NA NOT_NAMED 1910-09-26 12:00:00 TS 37.0000 -61.0000 80 hurdat_atl main 809 771 O_____________ hurdat_atl AL041910 37.0000 -61.0000 HU 80 1 12 33
1910267N28300 1910 43 NA NA NOT_NAMED 1910-09-26 15:00:00 TS 37.5498 -60.5920 main 776 737 P_____________ AL041910 37.5498 -60.5920 HU 77 1 13 30
1910267N28300 1910 43 NA NA NOT_NAMED 1910-09-26 18:00:00 TS 38.1000 -60.2000 75 hurdat_atl main 737 712 O_____________ hurdat_atl AL041910 38.1000 -60.2000 HU 75 1 12 31
1910267N28300 1910 43 NA NA NOT_NAMED 1910-09-26 21:00:00 TS 38.6074 -59.7993 main 712 682 P_____________ AL041910 38.6074 -59.7993 HU 72 1 12 32
1910267N28300 1910 43 NA NA NOT_NAMED 1910-09-27 00:00:00 TS 39.1000 -59.4000 70 hurdat_atl main 682 642 O_____________ hurdat_atl AL041910 39.1000 -59.4000 HU 70 1 12 31
1910267N28300 1910 43 NA NA NOT_NAMED 1910-09-27 03:00:00 TS 39.6071 -59.0216 main 645 602 P_____________ AL041910 39.6071 -59.0216 HU 67 1 12 32
1910267N28300 1910 43 NA NA NOT_NAMED 1910-09-27 06:00:00 TS 40.1000 -58.6000 65 hurdat_atl main 602 566 O_____________ hurdat_atl AL041910 40.1000 -58.6000 HU 65 1 12 36
1910267N28300 1910 43 NA NA NOT_NAMED 1910-09-27 09:00:00 TS 40.6024 -58.0806 main 566 546 P_____________ AL041910 40.6024 -58.0806 HU 62 0 12 43
1910267N28300 1910 43 NA NA NOT_NAMED 1910-09-27 12:00:00 ET 41.0000 -57.5000 60 hurdat_atl main 550 544 O_____________ hurdat_atl AL041910 41.0000 -57.5000 EX 60 -4 11 54
1910267N28300 1910 43 NA NA NOT_NAMED 1910-09-27 15:00:00 ET 41.2320 -56.9222 main 559 555 P_____________ AL041910 41.2320 -56.9222 EX 60 -4 9 72
1910267N28300 1910 43 NA NA NOT_NAMED 1910-09-27 18:00:00 ET 41.3000 -56.3000 60 hurdat_atl main 580 580 O_____________ hurdat_atl AL041910 41.3000 -56.3000 EX 60 -4 10 90
1910267N28300 1910 43 NA NA NOT_NAMED 1910-09-27 21:00:00 ET 41.2376 -55.5990 main 621 613 P_____________ AL041910 41.2376 -55.5990 EX 60 -4 11 101
1910267N28300 1910 43 NA NA NOT_NAMED 1910-09-28 00:00:00 ET 41.1000 -54.9000 60 hurdat_atl main 620 616 O_____________ hurdat_atl AL041910 41.1000 -54.9000 EX 60 -4 10 104
1910267N28300 1910 43 NA NA NOT_NAMED 1910-09-28 03:00:00 ET 40.9988 -54.3229 main 625 623 P_____________ AL041910 40.9988 -54.3229 EX 60 -4 9 102
1910267N28300 1910 43 NA NA NOT_NAMED 1910-09-28 06:00:00 ET 40.9000 -53.7000 60 hurdat_atl main 633 633 O_____________ hurdat_atl AL041910 40.9000 -53.7000 EX 60 -4 11 101
1910267N28300 1910 43 NA NA NOT_NAMED 1910-09-28 09:00:00 ET 40.7988 -52.9402 main 645 645 P_____________ AL041910 40.7988 -52.9402 EX 60 -4 13 99
1910267N28300 1910 43 NA NA NOT_NAMED 1910-09-28 12:00:00 ET 40.7000 -52.0000 60 hurdat_atl main 662 662 O_____________ hurdat_atl AL041910 40.7000 -52.0000 EX 60 -4 15 99
1910267N28300 1910 43 NA NA NOT_NAMED 1910-09-28 15:00:00 ET 40.5597 -50.9325 main 692 692 P_____________ AL041910 40.5597 -50.9325 EX 57 -4 18 96
1910267N28300 1910 43 NA NA NOT_NAMED 1910-09-28 18:00:00 ET 40.5000 -49.6000 55 hurdat_atl main 737 737 O_____________ hurdat_atl AL041910 40.5000 -49.6000 EX 55 -4 23 88
1910267N28300 1910 43 NA NA NOT_NAMED 1910-09-28 21:00:00 ET 40.6214 -47.9200 main 790 790 P_____________ AL041910 40.6214 -47.9200 EX 52 -4 27 84
1910267N28300 1910 43 NA NA NOT_NAMED 1910-09-29 00:00:00 ET 40.8000 -46.1000 50 hurdat_atl main 859 859 O_____________ hurdat_atl AL041910 40.8000 -46.1000 EX 50 -4 27 84
1910267N28300 1910 43 NA NA NOT_NAMED 1910-09-29 03:00:00 ET 40.8835 -44.3952 main 946 946 P_____________ AL041910 40.8835 -44.3952 EX 47 -4 25 85
1910267N28300 1910 43 NA NA NOT_NAMED 1910-09-29 06:00:00 ET 41.0000 -42.8000 45 hurdat_atl main 1037 1037 O_____________ hurdat_atl AL041910 41.0000 -42.8000 EX 45 -4 23 82
1910267N28300 1910 43 NA NA NOT_NAMED 1910-09-29 09:00:00 ET 41.2174 -41.3475 main 1119 1119 P_____________ AL041910 41.2174 -41.3475 EX 42 -4 22 77
1910267N28300 1910 43 NA NA NOT_NAMED 1910-09-29 12:00:00 ET 41.5000 -40.0000 40 hurdat_atl main 1187 1187 O_____________ hurdat_atl AL041910 41.5000 -40.0000 EX 40 -4 21 74
1910267N28300 1910 43 NA NA NOT_NAMED 1910-09-29 15:00:00 ET 41.8007 -38.6945 main 1260 1260 P_____________ AL041910 41.8007 -38.6945 EX 37 -4 20 73
1910267N28300 1910 43 NA NA NOT_NAMED 1910-09-29 18:00:00 ET 42.1000 -37.4000 35 hurdat_atl main 1333 O_____________ hurdat_atl AL041910 42.1000 -37.4000 EX 35 -4 20 73

IBTrACS Databaseについて

本データベースは、米国NOAAが公開する1842年以降の世界の熱帯低気圧のベストトラックデータアーカイブInternational Best Track Archive for Climate Stewardship (IBTrACS)を、ウェブで閲覧しやすい形式に変換したものです。

最終更新日:2021-12-08